Time;durP1;ratioP1;P1;durP2;ratioP2;P2;SDS_P1;SDS_P2;PMS_P1;PMS_P2;Temp;Humidity;BMP_temperature;BMP_pressure;BME280_temperature;BME280_humidity;BME280_pressure;Samples;Min_cycle;Max_cycle;Signal;HPM_P1;HPM_P2
2023/03/05 00:01:09;;;;;;;11.00;1.77;;;3.30;99.90;;;;;;5070094;28;20069;-68
2023/03/05 00:03:35;;;;;;;8.35;2.10;;;3.10;99.90;;;;;;5073043;28;20041;-69
2023/03/05 00:06:01;;;;;;;8.35;2.03;;;3.10;99.90;;;;;;5070908;28;20062;-68
2023/03/05 00:08:28;;;;;;;11.48;2.20;;;3.10;99.90;;;;;;5070492;28;20040;-68
2023/03/05 00:10:59;;;;;;;21.77;2.95;;;3.10;99.90;;;;;;5072047;28;20043;-68
2023/03/05 00:13:24;;;;;;;7.63;1.80;;;3.30;99.90;;;;;;5064709;28;20037;-68
2023/03/05 00:15:50;;;;;;;10.82;1.77;;;3.20;99.90;;;;;;5060403;28;20078;-68
2023/03/05 00:18:16;;;;;;;7.88;1.63;;;3.10;99.90;;;;;;5069890;28;20493;-68
2023/03/05 00:20:42;;;;;;;7.00;1.65;;;3.10;99.90;;;;;;5069119;28;20398;-69
2023/03/05 00:23:07;;;;;;;8.77;1.67;;;3.10;99.90;;;;;;5059105;28;20049;-68
2023/03/05 00:25:37;;;;;;;15.30;2.10;;;3.10;99.90;;;;;;5061027;28;20040;-69
2023/03/05 00:28:03;;;;;;;3.67;1.50;;;3.10;99.90;;;;;;5065670;28;20055;-69
2023/03/05 00:30:30;;;;;;;10.90;1.90;;;3.10;99.90;;;;;;5069692;28;20072;-68
2023/03/05 00:32:56;;;;;;;10.02;1.63;;;3.10;99.90;;;;;;5067826;28;20040;-69
2023/03/05 00:35:21;;;;;;;12.40;3.25;;;3.10;99.90;;;;;;5067764;28;20044;-69
2023/03/05 00:37:47;;;;;;;12.52;2.50;;;3.10;99.90;;;;;;5065547;28;20490;-69
2023/03/05 00:40:13;;;;;;;11.02;1.90;;;3.20;99.90;;;;;;5070619;28;20138;-69
2023/03/05 00:42:39;;;;;;;12.15;2.10;;;3.10;99.90;;;;;;5068236;28;20048;-68
2023/03/05 00:45:09;;;;;;;7.13;1.63;;;3.10;99.90;;;;;;5064533;28;20042;-68
2023/03/05 00:47:35;;;;;;;9.27;1.90;;;3.10;99.90;;;;;;5071097;28;20155;-68
2023/03/05 00:50:01;;;;;;;12.57;1.90;;;3.20;99.90;;;;;;5067274;28;20045;-68
2023/03/05 00:52:27;;;;;;;10.30;1.90;;;3.20;99.90;;;;;;5062820;28;20090;-68
2023/03/05 00:54:53;;;;;;;8.75;1.80;;;3.20;99.90;;;;;;5063605;28;20044;-67
2023/03/05 00:57:18;;;;;;;8.82;1.85;;;3.20;99.90;;;;;;5069801;28;20037;-67
2023/03/05 00:59:44;;;;;;;8.13;1.83;;;3.20;99.90;;;;;;5069987;28;20045;-68
2023/03/05 01:02:10;;;;;;;7.72;1.40;;;3.20;99.90;;;;;;5066642;28;20082;-68
2023/03/05 01:04:36;;;;;;;9.63;1.75;;;3.20;99.90;;;;;;5070263;28;20490;-68
2023/03/05 01:07:02;;;;;;;9.40;1.70;;;3.30;99.90;;;;;;5070784;28;20044;-68
2023/03/05 01:09:29;;;;;;;7.47;1.20;;;3.30;99.90;;;;;;5058164;28;20126;-68
2023/03/05 01:11:55;;;;;;;3.80;1.10;;;3.30;99.90;;;;;;5063639;28;20044;-68
2023/03/05 01:14:21;;;;;;;8.38;1.80;;;3.30;99.90;;;;;;5074080;28;20462;-67
2023/03/05 01:16:46;;;;;;;7.50;1.25;;;3.40;99.90;;;;;;5069617;28;20048;-69
2023/03/05 01:19:14;;;;;;;9.68;1.65;;;3.40;99.90;;;;;;5059201;28;20045;-68
2023/03/05 01:21:40;;;;;;;9.93;1.63;;;3.50;99.90;;;;;;5062735;28;20477;-68
2023/03/05 01:24:06;;;;;;;3.88;1.00;;;3.40;99.90;;;;;;5068715;28;20295;-67
2023/03/05 01:26:32;;;;;;;11.05;1.30;;;3.40;99.90;;;;;;5061785;28;20049;-67
2023/03/05 01:28:58;;;;;;;7.43;1.70;;;3.40;99.90;;;;;;5063582;28;20052;-68
2023/03/05 01:31:24;;;;;;;10.88;1.73;;;3.40;99.90;;;;;;5070116;28;20040;-69
2023/03/05 01:33:53;;;;;;;3.55;1.15;;;3.40;99.90;;;;;;5066712;28;20041;-69
2023/03/05 01:36:22;;;;;;;5.95;1.13;;;3.40;99.90;;;;;;5059885;28;20480;-67
2023/03/05 01:38:47;;;;;;;;;;;3.40;99.90;;;;;;5076090;28;20037;-68
2023/03/05 01:41:14;;;;;;;6.53;1.25;;;3.30;99.90;;;;;;5074403;28;19924;-68
2023/03/05 01:43:41;;;;;;;13.32;1.88;;;3.30;99.90;;;;;;5074269;28;20065;-68
2023/03/05 01:46:22;;;;;;;3.72;1.40;;;3.40;99.90;;;;;;5074583;28;20555;-68
2023/03/05 01:48:52;;;;;;;11.65;1.40;;;3.10;99.90;;;;;;5075893;28;20146;-67
2023/03/05 01:51:21;;;;;;;7.35;1.65;;;3.00;99.90;;;;;;5069086;28;20377;-68
2023/03/05 01:53:47;;;;;;;8.48;1.80;;;3.00;99.90;;;;;;5075074;28;20083;-68
2023/03/05 01:56:13;;;;;;;4.25;1.15;;;3.00;99.90;;;;;;5060935;28;20033;-68
2023/03/05 01:58:39;;;;;;;8.10;1.40;;;3.00;99.90;;;;;;5059659;28;20037;-68
2023/03/05 02:01:05;;;;;;;10.52;2.08;;;3.10;99.90;;;;;;5073093;28;20071;-68
2023/03/05 02:03:31;;;;;;;7.20;1.30;;;3.10;99.90;;;;;;5056252;28;20409;-68
2023/03/05 02:05:57;;;;;;;6.75;1.75;;;3.00;99.90;;;;;;5067955;28;20040;-69
2023/03/05 02:08:23;;;;;;;8.02;2.00;;;3.10;99.90;;;;;;5067534;28;20045;-68
2023/03/05 02:10:51;;;;;;;14.10;1.70;;;3.10;99.90;;;;;;5073383;28;20460;-68
2023/03/05 02:13:21;;;;;;;9.43;1.50;;;3.10;99.90;;;;;;5066980;28;20369;-68
2023/03/05 02:15:48;;;;;;;3.40;1.08;;;3.10;99.90;;;;;;5069440;28;20063;-68
2023/03/05 02:18:16;;;;;;;6.90;1.23;;;3.00;99.90;;;;;;5069897;28;20068;-68
2023/03/05 02:20:56;;;;;;;12.10;1.42;;;3.00;99.90;;;;;;5062453;28;20044;-68
2023/03/05 02:23:24;;;;;;;3.83;1.58;;;2.90;99.90;;;;;;5069726;28;20485;-68
2023/03/05 02:25:50;;;;;;;4.60;1.40;;;2.90;99.90;;;;;;5062795;28;20037;-67
2023/03/05 02:28:28;;;;;;;5.72;1.50;;;2.90;99.90;;;;;;5070768;28;20417;-67
2023/03/05 02:30:54;;;;;;;8.43;1.50;;;2.90;99.90;;;;;;5062159;28;20036;-67
2023/03/05 02:33:20;;;;;;;4.32;1.38;;;2.90;99.90;;;;;;5061256;28;20112;-68
2023/03/05 02:35:46;;;;;;;10.85;1.90;;;2.90;99.90;;;;;;5072834;28;20048;-68
2023/03/05 02:38:14;;;;;;;4.78;1.50;;;2.80;99.90;;;;;;5071515;28;20473;-68
2023/03/05 02:40:40;;;;;;;11.60;2.00;;;2.80;99.90;;;;;;5069354;28;20045;-68
2023/03/05 02:43:06;;;;;;;4.18;1.40;;;2.90;99.90;;;;;;5069799;28;20101;-68
2023/03/05 02:45:32;;;;;;;4.93;1.33;;;2.80;99.90;;;;;;5068524;28;20032;-67
2023/03/05 02:47:57;;;;;;;11.05;1.95;;;2.80;99.90;;;;;;5068249;28;20044;-67
2023/03/05 02:50:25;;;;;;;5.88;1.42;;;2.80;99.90;;;;;;5072941;28;20056;-68
2023/03/05 02:52:51;;;;;;;7.07;1.57;;;2.70;99.90;;;;;;5070177;28;20079;-68
2023/03/05 02:55:16;;;;;;;6.18;1.10;;;2.70;99.90;;;;;;5075544;28;20068;-68
2023/03/05 02:57:42;;;;;;;7.30;1.63;;;2.60;99.90;;;;;;5074703;28;20299;-68
2023/03/05 03:00:10;;;;;;;5.72;1.50;;;2.70;99.90;;;;;;5073806;28;20040;-68
2023/03/05 03:02:35;;;;;;;6.93;1.15;;;2.70;99.90;;;;;;5055350;28;20049;-67
2023/03/05 03:05:01;;;;;;;8.73;1.55;;;2.70;99.90;;;;;;5055116;28;20052;-68
2023/03/05 03:07:27;;;;;;;8.25;1.45;;;2.80;99.90;;;;;;5064108;28;20033;-68
2023/03/05 03:09:52;;;;;;;11.23;1.77;;;2.90;99.90;;;;;;5074138;28;20049;-68
2023/03/05 03:12:18;;;;;;;7.45;2.00;;;2.90;99.90;;;;;;5070196;28;20029;-68
2023/03/05 03:14:44;;;;;;;6.40;1.30;;;3.00;99.90;;;;;;5067350;28;20086;-68
2023/03/05 03:17:15;;;;;;;5.18;1.40;;;2.80;99.90;;;;;;5067576;28;20033;-68
2023/03/05 03:19:42;;;;;;;6.03;1.40;;;2.70;99.90;;;;;;5074460;28;20040;-69
2023/03/05 03:22:09;;;;;;;15.50;1.75;;;2.70;99.90;;;;;;5071674;28;20417;-68
2023/03/05 03:24:36;;;;;;;6.22;1.25;;;2.70;99.90;;;;;;5073108;28;20063;-68
2023/03/05 03:27:02;;;;;;;4.93;1.33;;;2.60;99.90;;;;;;5067690;28;20824;-68
2023/03/05 03:29:28;;;;;;;8.07;1.67;;;2.60;99.90;;;;;;5073459;28;20418;-69
2023/03/05 03:31:54;;;;;;;8.77;1.42;;;2.60;99.90;;;;;;5065985;28;20040;-69
2023/03/05 03:34:20;;;;;;;2.65;1.20;;;2.50;99.90;;;;;;5068837;28;20040;-68
2023/03/05 03:36:47;;;;;;;6.63;1.85;;;2.60;99.90;;;;;;5065626;28;20036;-69
2023/03/05 03:39:13;;;;;;;9.10;1.40;;;2.50;99.90;;;;;;5065983;28;20436;-69
2023/03/05 03:41:46;;;;;;;5.10;1.50;;;2.50;99.90;;;;;;5064619;28;20056;-69
2023/03/05 03:44:12;;;;;;;8.77;2.15;;;2.40;99.90;;;;;;5069547;28;20118;-68
2023/03/05 03:46:39;;;;;;;7.97;1.65;;;2.40;99.90;;;;;;5069624;28;21382;-68
2023/03/05 03:49:07;;;;;;;7.95;1.98;;;2.50;99.90;;;;;;5067252;28;20049;-68
2023/03/05 03:51:33;;;;;;;12.00;1.70;;;2.50;99.90;;;;;;5064552;28;20458;-68
2023/03/05 03:53:59;;;;;;;7.85;1.90;;;2.60;99.90;;;;;;5063063;28;20045;-68
2023/03/05 03:56:25;;;;;;;9.60;1.70;;;2.60;99.90;;;;;;5068441;28;20043;-69
2023/03/05 03:58:52;;;;;;;8.20;1.25;;;2.60;99.90;;;;;;5063839;28;20036;-69
2023/03/05 04:01:19;;;;;;;7.93;1.58;;;2.50;99.90;;;;;;5068357;28;20119;-69
2023/03/05 04:03:45;;;;;;;4.60;1.23;;;2.50;99.90;;;;;;5063840;28;20033;-69
2023/03/05 04:06:13;;;;;;;5.18;1.48;;;2.50;99.90;;;;;;5069875;28;20103;-69
2023/03/05 04:08:39;;;;;;;6.93;1.23;;;2.40;99.90;;;;;;5068934;28;20119;-69
2023/03/05 04:11:05;;;;;;;7.40;1.30;;;2.40;99.90;;;;;;5065269;28;20445;-69
2023/03/05 04:13:31;;;;;;;3.13;1.02;;;2.40;99.90;;;;;;5072594;28;20036;-69
2023/03/05 04:15:57;;;;;;;10.88;1.40;;;2.30;99.90;;;;;;5064811;28;20040;-69
2023/03/05 04:18:23;;;;;;;4.28;1.25;;;2.20;99.90;;;;;;5069874;28;20509;-68
2023/03/05 04:20:48;;;;;;;4.13;1.88;;;2.20;99.90;;;;;;5071189;28;20124;-68
2023/03/05 04:23:14;;;;;;;6.70;1.60;;;2.20;99.90;;;;;;5062012;28;20064;-68
2023/03/05 04:25:40;;;;;;;4.55;1.30;;;2.20;99.90;;;;;;5071013;28;20120;-68
2023/03/05 04:28:05;;;;;;;6.15;1.30;;;2.20;99.90;;;;;;5066764;28;20033;-69
2023/03/05 04:30:31;;;;;;;4.10;1.45;;;2.20;99.90;;;;;;5069024;28;20063;-68
2023/03/05 04:32:57;;;;;;;7.43;1.75;;;2.20;99.90;;;;;;5068043;28;20044;-68
2023/03/05 04:35:23;;;;;;;14.50;2.25;;;2.20;99.90;;;;;;5066691;28;20040;-68
2023/03/05 04:37:49;;;;;;;9.07;1.98;;;2.20;99.90;;;;;;5069261;28;20051;-69
2023/03/05 04:40:15;;;;;;;3.88;1.63;;;2.30;99.90;;;;;;5066597;28;20379;-68
2023/03/05 04:42:41;;;;;;;9.10;1.80;;;2.30;99.90;;;;;;5070273;28;20396;-68
2023/03/05 04:45:07;;;;;;;5.72;1.80;;;2.40;99.90;;;;;;5056602;28;20036;-68
2023/03/05 04:47:33;;;;;;;7.13;1.50;;;2.30;99.90;;;;;;5069079;28;20576;-68
2023/03/05 04:49:59;;;;;;;4.85;1.90;;;2.30;99.90;;;;;;5056802;28;20052;-69
2023/03/05 04:52:25;;;;;;;4.47;1.67;;;2.30;99.90;;;;;;5070704;28;20040;-68
2023/03/05 04:54:51;;;;;;;7.25;1.90;;;2.30;99.90;;;;;;5065578;28;20037;-69
2023/03/05 04:57:17;;;;;;;11.60;1.75;;;2.30;99.90;;;;;;5070969;28;20567;-69
2023/03/05 04:59:42;;;;;;;5.20;1.50;;;2.40;99.90;;;;;;5069187;28;20114;-69
2023/03/05 05:02:08;;;;;;;9.15;1.98;;;2.30;99.90;;;;;;5064780;28;20033;-68
2023/03/05 05:04:34;;;;;;;7.13;1.48;;;2.40;99.90;;;;;;5059316;28;20044;-68
2023/03/05 05:07:01;;;;;;;5.93;1.55;;;2.40;99.90;;;;;;5073839;28;20048;-68
2023/03/05 05:09:27;;;;;;;7.13;1.80;;;2.40;99.90;;;;;;5065016;28;20415;-69
2023/03/05 05:11:53;;;;;;;7.70;1.50;;;2.50;99.90;;;;;;5072292;28;20037;-68
2023/03/05 05:14:19;;;;;;;9.45;1.73;;;2.50;99.90;;;;;;5074758;28;20056;-68
2023/03/05 05:16:45;;;;;;;4.32;1.98;;;2.50;99.90;;;;;;5069506;28;20424;-69
2023/03/05 05:19:11;;;;;;;8.68;1.58;;;2.60;99.90;;;;;;5066975;28;20036;-69
2023/03/05 05:21:37;;;;;;;4.90;1.42;;;2.50;99.90;;;;;;5070512;28;20381;-69
2023/03/05 05:24:03;;;;;;;10.60;1.35;;;2.60;99.90;;;;;;5071360;28;20067;-69
2023/03/05 05:26:28;;;;;;;5.60;1.40;;;2.50;99.90;;;;;;5065574;28;20044;-68
2023/03/05 05:28:54;;;;;;;4.78;1.30;;;2.50;99.90;;;;;;5062972;28;20044;-68
2023/03/05 05:31:20;;;;;;;5.50;1.33;;;2.50;99.90;;;;;;5073041;28;20040;-68
2023/03/05 05:33:46;;;;;;;4.32;1.15;;;2.40;99.90;;;;;;5059343;28;20126;-68
2023/03/05 05:36:14;;;;;;;7.38;1.38;;;2.40;99.90;;;;;;5064220;28;20410;-69
2023/03/05 05:38:39;;;;;;;4.05;1.35;;;2.40;99.90;;;;;;5073792;28;20072;-69
2023/03/05 05:41:14;;;;;;;4.60;1.30;;;2.40;99.90;;;;;;5074324;28;20076;-69
2023/03/05 05:43:40;;;;;;;5.00;1.05;;;2.40;99.90;;;;;;5074646;28;20204;-68
2023/03/05 05:46:08;;;;;;;6.25;1.15;;;2.30;99.90;;;;;;5072557;28;20100;-68
2023/03/05 05:48:35;;;;;;;6.35;1.15;;;2.40;99.90;;;;;;5077515;28;20044;-69
2023/03/05 05:51:09;;;;;;;7.60;1.30;;;2.30;99.90;;;;;;5072117;28;20080;-68
2023/03/05 05:53:35;;;;;;;7.53;1.92;;;2.30;99.90;;;;;;5068725;28;20136;-69
2023/03/05 05:56:04;;;;;;;7.93;1.55;;;2.30;99.90;;;;;;5067405;28;20048;-68
2023/03/05 05:58:29;;;;;;;;;;;2.20;99.90;;;;;;5056860;28;20494;-67
2023/03/05 06:00:55;;;;;;;5.93;1.17;;;2.20;99.90;;;;;;5057123;28;19929;-69
2023/03/05 06:03:21;;;;;;;5.60;1.15;;;2.20;99.90;;;;;;5072640;28;20028;-69
2023/03/05 06:05:47;;;;;;;7.93;1.45;;;2.20;99.90;;;;;;5071057;28;20045;-68
2023/03/05 06:08:12;;;;;;;11.85;1.42;;;2.20;99.90;;;;;;5071163;28;20035;-69
2023/03/05 06:10:38;;;;;;;10.88;1.40;;;2.20;99.90;;;;;;5063531;28;20435;-68
2023/03/05 06:13:04;;;;;;;26.88;1.95;;;2.20;99.90;;;;;;5063331;28;20094;-68
2023/03/05 06:15:30;;;;;;;8.52;1.60;;;2.20;99.90;;;;;;5069021;28;20039;-69
2023/03/05 06:17:57;;;;;;;8.15;1.52;;;2.20;99.90;;;;;;5072212;28;20040;-68
2023/03/05 06:20:22;;;;;;;11.95;1.80;;;2.10;99.90;;;;;;5071148;28;20047;-68
2023/03/05 06:22:48;;;;;;;8.45;1.48;;;2.10;99.90;;;;;;5070387;28;20044;-67
2023/03/05 06:25:14;;;;;;;9.95;1.40;;;2.10;99.90;;;;;;5068772;28;20044;-68
2023/03/05 06:27:39;;;;;;;7.22;1.50;;;2.10;99.90;;;;;;5067967;28;20044;-69
2023/03/05 06:30:06;;;;;;;4.32;1.17;;;2.10;99.90;;;;;;5067552;28;20033;-67
2023/03/05 06:32:31;;;;;;;6.65;1.48;;;2.10;99.90;;;;;;5071843;28;20043;-68
2023/03/05 06:34:57;;;;;;;7.63;1.63;;;2.10;99.90;;;;;;5068600;28;20489;-67
2023/03/05 06:37:22;;;;;;;3.90;1.08;;;2.20;99.90;;;;;;5072774;28;20044;-68
2023/03/05 06:39:48;;;;;;;9.90;1.67;;;2.20;99.90;;;;;;5067818;28;20932;-67
2023/03/05 06:42:16;;;;;;;11.82;1.70;;;2.30;99.90;;;;;;5071406;28;20036;-67
2023/03/05 06:44:42;;;;;;;8.15;1.40;;;2.30;99.90;;;;;;5072252;28;20066;-68
2023/03/05 06:47:11;;;;;;;10.55;1.50;;;2.30;99.90;;;;;;5065842;28;20029;-68
2023/03/05 06:49:37;;;;;;;5.97;1.27;;;2.30;99.90;;;;;;5066589;28;20052;-68
2023/03/05 06:52:04;;;;;;;8.65;1.35;;;2.30;99.90;;;;;;5058602;28;20098;-68
2023/03/05 06:54:30;;;;;;;8.30;1.67;;;2.30;99.90;;;;;;5072459;28;20066;-68
2023/03/05 06:56:56;;;;;;;8.15;1.50;;;2.40;99.90;;;;;;5058188;28;20123;-68
2023/03/05 06:59:22;;;;;;;8.68;1.40;;;2.40;99.90;;;;;;5073483;28;20058;-68
2023/03/05 07:01:47;;;;;;;4.50;1.50;;;2.50;99.90;;;;;;5055575;28;20545;-67
2023/03/05 07:04:13;;;;;;;5.75;1.25;;;2.50;99.90;;;;;;5072434;28;20470;-68
2023/03/05 07:06:42;;;;;;;10.15;1.73;;;2.50;99.90;;;;;;5073222;28;20048;-68
2023/03/05 07:09:14;;;;;;;5.50;1.20;;;2.50;99.90;;;;;;5069906;28;20040;-69
2023/03/05 07:11:40;;;;;;;10.73;2.38;;;2.60;99.90;;;;;;5071282;28;20440;-69
2023/03/05 07:14:06;;;;;;;19.05;1.95;;;2.80;99.90;;;;;;5069367;28;20049;-68
2023/03/05 07:16:33;;;;;;;5.68;1.60;;;2.70;99.90;;;;;;5065019;28;20464;-68
2023/03/05 07:19:04;;;;;;;16.55;2.17;;;2.80;99.90;;;;;;5071511;28;20108;-69
2023/03/05 07:21:31;;;;;;;11.38;1.65;;;2.80;99.90;;;;;;5071700;28;20044;-68
2023/03/05 07:23:59;;;;;;;6.23;1.50;;;2.80;99.90;;;;;;5069019;28;20044;-69
2023/03/05 07:26:26;;;;;;;6.82;1.80;;;2.90;99.90;;;;;;5070686;28;20301;-68
2023/03/05 07:28:51;;;;;;;10.23;1.77;;;2.90;99.90;;;;;;5061628;28;20123;-68
2023/03/05 07:31:21;;;;;;;9.82;2.00;;;2.90;99.90;;;;;;5061005;28;20123;-68
2023/03/05 07:33:48;;;;;;;8.05;1.50;;;3.00;99.90;;;;;;5063381;28;20047;-68
2023/03/05 07:36:15;;;;;;;7.88;1.52;;;3.00;99.90;;;;;;5070404;28;20036;-69
2023/03/05 07:38:40;;;;;;;12.85;2.40;;;3.10;99.90;;;;;;5068725;28;20474;-69
2023/03/05 07:41:12;;;;;;;3.28;1.15;;;3.20;99.90;;;;;;5059920;28;20051;-69
2023/03/05 07:43:38;;;;;;;8.05;1.60;;;3.30;99.90;;;;;;5072823;28;20048;-68
2023/03/05 07:46:08;;;;;;;7.93;1.33;;;3.30;99.90;;;;;;5064641;28;20055;-68
2023/03/05 07:48:34;;;;;;;8.60;1.77;;;3.20;99.90;;;;;;5064527;28;20045;-69
2023/03/05 07:51:05;;;;;;;5.38;1.25;;;3.20;99.90;;;;;;5066750;28;20052;-68
2023/03/05 07:53:31;;;;;;;6.68;1.27;;;3.20;99.90;;;;;;5072340;28;20485;-68
2023/03/05 07:55:57;;;;;;;8.20;1.45;;;3.30;99.90;;;;;;5068794;28;20119;-69
2023/03/05 07:58:22;;;;;;;9.02;1.23;;;3.30;99.90;;;;;;5070366;28;20033;-68
2023/03/05 08:00:48;;;;;;;7.90;1.42;;;3.00;99.90;;;;;;5065123;28;20051;-69
2023/03/05 08:03:14;;;;;;;10.73;1.80;;;3.50;99.90;;;;;;5058074;28;20037;-68
2023/03/05 08:05:40;;;;;;;8.95;1.80;;;3.60;99.90;;;;;;5060258;28;20045;-69
2023/03/05 08:08:07;;;;;;;13.75;1.80;;;3.70;99.90;;;;;;5064284;28;20037;-68
2023/03/05 08:10:34;;;;;;;7.13;1.25;;;3.80;99.90;;;;;;5068442;28;20419;-69
2023/03/05 08:12:59;;;;;;;8.30;1.40;;;4.10;99.90;;;;;;5057274;28;20049;-68
2023/03/05 08:15:25;;;;;;;8.23;1.50;;;3.90;99.90;;;;;;5066144;28;20041;-69
2023/03/05 08:17:51;;;;;;;8.52;1.42;;;3.90;99.90;;;;;;5065551;28;20489;-67
2023/03/05 08:20:18;;;;;;;9.30;1.48;;;3.90;99.90;;;;;;5056951;28;20037;-68
2023/03/05 08:22:44;;;;;;;8.23;1.40;;;3.90;99.90;;;;;;5065988;28;20405;-67
2023/03/05 08:25:11;;;;;;;5.80;1.10;;;4.00;99.90;;;;;;5061476;28;20046;-70
2023/03/05 08:27:41;;;;;;;6.35;1.23;;;4.10;99.90;;;;;;5069865;28;20546;-71
2023/03/05 08:30:10;;;;;;;10.98;1.67;;;4.20;99.90;;;;;;5058777;28;20044;-69
2023/03/05 08:32:35;;;;;;;6.43;1.25;;;4.30;99.90;;;;;;5066878;28;20053;-69
2023/03/05 08:35:03;;;;;;;10.48;1.60;;;4.50;99.90;;;;;;5059794;28;20071;-68
2023/03/05 08:37:29;;;;;;;6.30;1.58;;;4.60;99.90;;;;;;5069305;28;20064;-68
2023/03/05 08:39:55;;;;;;;8.15;1.63;;;4.80;99.90;;;;;;5067911;28;20556;-68
2023/03/05 08:42:21;;;;;;;5.65;1.67;;;5.00;99.90;;;;;;5070476;28;20111;-69
2023/03/05 08:44:47;;;;;;;8.30;1.80;;;5.20;99.90;;;;;;5063302;28;20076;-69
2023/03/05 08:47:13;;;;;;;7.65;1.75;;;5.30;99.90;;;;;;5062120;28;20079;-68
2023/03/05 08:49:38;;;;;;;7.07;1.88;;;5.40;99.90;;;;;;5065838;28;20368;-68
2023/03/05 08:52:06;;;;;;;5.25;1.35;;;5.40;99.90;;;;;;5066840;28;20052;-69
2023/03/05 08:54:32;;;;;;;14.85;1.70;;;5.50;99.90;;;;;;5070151;28;20080;-68
2023/03/05 08:56:58;;;;;;;12.18;1.98;;;5.40;99.90;;;;;;5069439;28;20041;-70
2023/03/05 08:59:24;;;;;;;10.05;1.70;;;5.40;99.90;;;;;;5073699;28;20051;-68
2023/03/05 09:01:50;;;;;;;12.88;1.60;;;5.40;99.90;;;;;;5061738;28;20119;-69
2023/03/05 09:04:15;;;;;;;11.75;1.90;;;5.50;99.90;;;;;;5058616;28;20086;-68
2023/03/05 09:06:41;;;;;;;6.63;1.45;;;5.60;99.90;;;;;;5068740;28;20052;-68
2023/03/05 09:09:08;;;;;;;6.97;1.30;;;5.60;99.90;;;;;;5071680;28;20044;-68
2023/03/05 09:11:35;;;;;;;7.28;1.00;;;5.60;99.90;;;;;;5059112;28;20041;-70
2023/03/05 09:14:05;;;;;;;3.30;0.93;;;5.40;99.90;;;;;;5069139;28;20390;-69
2023/03/05 09:16:31;;;;;;;6.70;1.27;;;5.10;99.90;;;;;;5071664;28;20497;-68
2023/03/05 09:18:58;;;;;;;7.53;1.05;;;4.90;99.90;;;;;;5065740;28;20052;-70
2023/03/05 09:21:23;;;;;;;2.38;0.80;;;4.70;99.90;;;;;;5056149;28;20033;-69
2023/03/05 09:23:49;;;;;;;8.20;1.20;;;4.70;99.90;;;;;;5064811;28;20051;-69
2023/03/05 09:26:18;;;;;;;5.90;1.15;;;4.70;99.90;;;;;;5067452;28;20040;-69
2023/03/05 09:28:44;;;;;;;5.07;1.23;;;4.70;99.90;;;;;;5068567;28;20049;-68
2023/03/05 09:31:10;;;;;;;3.28;1.00;;;4.90;99.90;;;;;;5064144;28;20036;-67
2023/03/05 09:33:37;;;;;;;5.10;1.10;;;5.10;99.90;;;;;;5059227;28;20040;-69
2023/03/05 09:36:04;;;;;;;5.28;1.38;;;5.30;99.90;;;;;;5062962;28;20036;-68
2023/03/05 09:38:31;;;;;;;6.65;1.20;;;5.50;99.90;;;;;;5065077;28;20124;-68
2023/03/05 09:41:36;;;;;;;7.20;1.00;;;5.60;99.90;;;;;;5066930;28;20174;-68
2023/03/05 09:44:38;;;;;;;4.75;1.15;;;5.90;99.90;;;;;;5062266;28;20048;-69
2023/03/05 09:47:31;;;;;;;4.05;1.15;;;6.10;99.90;;;;;;5062049;28;20045;-67
2023/03/05 09:50:18;;;;;;;6.68;1.60;;;6.30;99.90;;;;;;5046414;28;20079;-68
2023/03/05 09:52:53;;;;;;;6.90;1.40;;;6.60;99.90;;;;;;5059998;28;20048;-68
2023/03/05 09:55:28;;;;;;;7.80;1.30;;;6.80;99.90;;;;;;5064915;28;20068;-68
2023/03/05 09:58:02;;;;;;;10.63;2.28;;;7.00;99.90;;;;;;5064226;28;20053;-68
2023/03/05 10:00:33;;;;;;;3.45;0.93;;;7.20;99.90;;;;;;5069984;28;20131;-68
2023/03/05 10:03:03;;;;;;;4.40;1.27;;;7.50;99.90;;;;;;5067712;28;20044;-68
2023/03/05 10:05:54;;;;;;;5.28;1.23;;;7.50;99.90;;;;;;5067868;28;20090;-68
2023/03/05 10:08:23;;;;;;;6.80;1.23;;;7.30;99.90;;;;;;5073352;28;20081;-67
2023/03/05 10:10:52;;;;;;;7.80;1.50;;;7.10;99.90;;;;;;5068792;28;20941;-67
2023/03/05 10:13:24;;;;;;;11.75;1.92;;;7.00;99.90;;;;;;5054966;28;20044;-67
2023/03/05 10:16:27;;;;;;;10.68;1.35;;;6.80;99.90;;;;;;5058882;28;20413;-67
2023/03/05 10:19:04;;;;;;;8.88;1.48;;;6.60;99.90;;;;;;5067235;28;20386;-66
2023/03/05 10:21:36;;;;;;;7.07;1.50;;;6.50;99.90;;;;;;5072080;28;20044;-67
2023/03/05 10:24:04;;;;;;;6.85;1.33;;;6.40;99.90;;;;;;5071871;28;20052;-67
2023/03/05 10:27:17;;;;;;;6.65;1.95;;;6.40;99.90;;;;;;5071757;28;20041;-67
2023/03/05 10:29:56;;;;;;;5.80;1.33;;;6.40;99.90;;;;;;5056488;28;20037;-67
2023/03/05 10:32:22;;;;;;;9.88;1.80;;;6.50;99.90;;;;;;5062118;28;20036;-68
2023/03/05 10:34:59;;;;;;;8.68;1.38;;;6.50;99.90;;;;;;5071107;28;20445;-68
2023/03/05 10:37:49;;;;;;;5.18;1.45;;;6.50;99.90;;;;;;5060571;28;20503;-68
2023/03/05 10:40:18;;;;;;;9.32;1.25;;;6.70;99.90;;;;;;5068606;28;20429;-68
2023/03/05 10:42:43;;;;;;;;;;;6.80;99.90;;;;;;5069778;28;20040;-68
2023/03/05 10:45:16;;;;;;;5.15;1.20;;;6.80;99.90;;;;;;5062678;28;20369;-69
2023/03/05 10:48:11;;;;;;;8.38;1.80;;;7.00;99.90;;;;;;5068665;28;20036;-69
2023/03/05 10:50:43;;;;;;;10.45;1.83;;;7.30;99.90;;;;;;5070860;28;20052;-69
2023/03/05 10:53:09;;;;;;;5.18;1.20;;;7.30;99.90;;;;;;5058204;28;20041;-68
2023/03/05 10:55:34;;;;;;;6.72;1.05;;;7.20;99.90;;;;;;5070475;28;20044;-69
2023/03/05 10:58:09;;;;;;;3.70;1.05;;;7.00;99.90;;;;;;5072193;28;20478;-68
2023/03/05 11:00:35;;;;;;;8.30;1.70;;;7.10;99.90;;;;;;5062116;28;20052;-68
2023/03/05 11:03:04;;;;;;;5.65;1.55;;;7.50;99.90;;;;;;5069165;28;20047;-69
2023/03/05 11:05:38;;;;;;;3.65;1.00;;;7.80;99.90;;;;;;5066759;28;20051;-68
2023/03/05 11:08:29;;;;;;;4.95;1.13;;;8.20;99.90;;;;;;5066501;28;20051;-67
2023/03/05 11:11:11;;;;;;;8.45;1.27;;;8.60;99.90;;;;;;5066546;28;20041;-68
2023/03/05 11:13:51;;;;;;;10.25;2.42;;;8.90;99.90;;;;;;5060156;28;20083;-68
2023/03/05 11:16:21;;;;;;;9.43;1.75;;;8.90;99.90;;;;;;5065008;28;20044;-68
2023/03/05 11:18:47;;;;;;;7.20;1.75;;;8.60;99.90;;;;;;5068201;28;20056;-68
2023/03/05 11:21:26;;;;;;;8.23;1.90;;;8.40;99.90;;;;;;5073761;28;20036;-68
2023/03/05 11:24:17;;;;;;;9.02;2.28;;;8.70;99.90;;;;;;5066779;28;20517;-68
2023/03/05 11:26:51;;;;;;;5.30;1.15;;;9.40;99.90;;;;;;5065280;28;20119;-68
2023/03/05 11:29:46;;;;;;;5.35;1.10;;;10.00;99.90;;;;;;5069597;28;20040;-68
2023/03/05 11:32:24;;;;;;;7.45;1.40;;;9.80;99.90;;;;;;5070477;28;20046;-68
2023/03/05 11:34:50;;;;;;;7.32;1.27;;;9.80;99.90;;;;;;5068829;28;20124;-68
2023/03/05 11:37:30;;;;;;;4.95;1.27;;;9.70;99.90;;;;;;5061410;28;20120;-68
2023/03/05 11:40:19;;;;;;;2.45;0.98;;;9.60;99.90;;;;;;5062795;28;20037;-68
2023/03/05 11:42:49;;;;;;;;;;;9.50;99.90;;;;;;5067310;28;20047;-68
2023/03/05 11:45:17;;;;;;;3.88;1.00;;;9.20;99.90;;;;;;5053400;28;19927;-68
2023/03/05 11:48:00;;;;;;;4.05;1.17;;;9.00;99.90;;;;;;5059548;28;20045;-69
2023/03/05 11:50:30;;;;;;;2.10;1.10;;;8.90;99.90;;;;;;5061669;28;20084;-68
2023/03/05 11:53:12;;;;;;;6.07;1.25;;;9.10;99.90;;;;;;5059624;28;20048;-68
2023/03/05 11:55:49;;;;;;;5.35;1.35;;;9.10;99.90;;;;;;5053095;28;20049;-68
2023/03/05 11:58:58;;;;;;;3.28;1.05;;;9.10;99.90;;;;;;5052598;28;20045;-68
2023/03/05 12:01:27;;;;;;;6.80;1.40;;;9.00;99.90;;;;;;5060322;28;20409;-68
2023/03/05 12:03:54;;;;;;;8.68;1.60;;;9.10;99.90;;;;;;5058310;28;20056;-68
2023/03/05 12:06:34;;;;;;;7.68;1.52;;;9.00;99.90;;;;;;5052492;28;20185;-68
2023/03/05 12:09:28;;;;;;;11.27;1.40;;;9.10;99.90;;;;;;5068087;28;20608;-68
2023/03/05 12:12:04;;;;;;;8.13;1.40;;;9.50;99.90;;;;;;5077302;28;20051;-68
2023/03/05 12:14:50;;;;;;;5.30;1.30;;;10.10;99.90;;;;;;5073072;28;20078;-68
2023/03/05 12:17:30;;;;;;;4.88;1.20;;;10.40;99.90;;;;;;5071749;28;20402;-69
2023/03/05 12:20:09;;;;;;;11.25;1.30;;;10.70;99.00;;;;;;5054599;28;20052;-68
2023/03/05 12:22:40;;;;;;;6.45;1.20;;;10.30;99.90;;;;;;5054466;28;20049;-68
2023/03/05 12:25:30;;;;;;;4.38;1.20;;;10.20;99.90;;;;;;5059651;28;20508;-68
2023/03/05 12:27:55;;;;;;;4.25;1.00;;;10.30;99.90;;;;;;5054288;28;20049;-68
2023/03/05 12:30:33;;;;;;;6.47;1.60;;;10.00;99.90;;;;;;5065641;28;20105;-68
2023/03/05 12:33:01;;;;;;;10.10;1.58;;;9.50;99.90;;;;;;5059809;28;20072;-68
2023/03/05 12:35:38;;;;;;;8.20;1.83;;;8.90;99.90;;;;;;5054206;28;20117;-67
2023/03/05 12:38:28;;;;;;;8.32;2.20;;;8.50;99.90;;;;;;5063665;28;20083;-67
2023/03/05 12:41:22;;;;;;;6.15;1.60;;;8.50;99.90;;;;;;5051462;28;20107;-68
2023/03/05 12:44:06;;;;;;;5.10;1.00;;;8.50;99.90;;;;;;5065037;28;20041;-68
2023/03/05 12:46:37;;;;;;;4.70;0.98;;;8.50;99.90;;;;;;5069674;28;20131;-67
2023/03/05 12:49:27;;;;;;;6.07;1.05;;;8.20;99.90;;;;;;5075063;28;20546;-68
2023/03/05 12:51:58;;;;;;;7.78;1.05;;;8.10;99.90;;;;;;5070471;28;20490;-69
2023/03/05 12:54:38;;;;;;;6.43;1.30;;;7.90;99.90;;;;;;5066532;28;20052;-68
2023/03/05 12:57:23;;;;;;;6.30;1.20;;;7.70;99.90;;;;;;5073687;28;20041;-68
2023/03/05 13:00:20;;;;;;;7.55;1.23;;;7.70;99.90;;;;;;5069937;28;20439;-68
2023/03/05 13:02:47;;;;;;;3.63;1.42;;;7.80;99.90;;;;;;5067807;28;20117;-69
2023/03/05 13:05:24;;;;;;;6.97;1.05;;;7.70;99.90;;;;;;5079602;28;20523;-68
2023/03/05 13:07:50;;;;;;;5.90;1.60;;;7.50;99.90;;;;;;5068915;28;20432;-68